Shawbury, United Kingdom
Current Conditions -  °F | °C
As of 3:27 PM on Friday 28 Nov 2014 (Local Time) from EGOS Reporting Station
Drizzle Drizzle  
Wind Chill: 52°   Ceiling: 800
Heat Index: 52°   Visibility: 2.8mi
Dew Point: 48°   Wind: 9mph
Humidity: 88%   Direction: 70°ENE
Pressure: 29.68"   Gusts: NA
Location:  52.79°N, 2.66°W
Report Text: EGOS 281527Z 07008KT 4500 -DZ FEW006 BKN008 OVC016 11/09 Q1005 GRN TEMPO SCT006 YLO1
Loading
Personal Weather Stations






























Interactive Weather Map New forecast layout! Learn more

10-Day Weather Forecast

Advertisements
Track Severe Weather on mobile